Latest Weather Observations for Robe Airport

IDS60801

Issued at 6:34 pm CDT Wednesday 1 April 2015 (issued every 30 minutes, with the page automatically refreshed every 10 minutes)

About weather observations | Map of weather stations | Latest weather observations for SA | Other Formats
Station Details ID: 026105 Name: ROBE AIRFIELD Lat: -37.18 Lon: 139.81 Height: 3.0 m
Data from the previous 72 hours. | See also: Recent months at Robe Airport
Date/Time
CDT
Temp
°C
App
Temp
°C
Dew
Point
Rel
Hum
%
Delta-T
°C
Wind Press
QNH
hPa
Press
MSL
hPa
Rain
since 9 am
mm
Dir
 
Spd
km/h
Gust
km/h
Spd
kts
Gust
kts
01/06:30pm 17.3 17.1 16.7 96 0.4 WNW 13 20 7 11 1014.4 1014.4 4.0
01/06:00pm 17.2 16.1 16.4 95 0.5 WNW 17 24 9 13 1013.9 1013.9 4.0
01/05:30pm 17.2 16.9 16.4 95 0.5 NW 13 20 7 11 1013.7 1013.7 3.8
01/05:00pm 17.2 17.3 16.4 95 0.5 WNW 11 17 6 9 1013.5 1013.5 3.8
01/04:30pm 17.2 17.9 16.1 93 0.6 W 7 11 4 6 1013.5 1013.5 3.0
01/04:00pm 18.0 18.0 16.3 90 1.0 W 11 19 6 10 1013.2 1013.2 0.8
01/03:30pm 19.1 18.3 16.1 83 1.8 WSW 15 24 8 13 1012.6 1012.6 0.0
01/03:00pm 21.0 18.6 14.4 66 3.9 W 20 32 11 17 1012.5 1012.5 0.0
01/02:44pm 22.3 17.9 12.8 55 5.4 WNW 28 46 15 25 1012.5 1012.5 0.0
01/02:30pm 23.1 18.3 11.5 48 6.5 NW 28 46 15 25 1012.4 1012.4 0.0
01/02:00pm 23.9 17.8 9.9 41 7.7 NNW 32 44 17 24 1012.0 1012.0 0.0
01/01:30pm 25.8 18.8 6.9 30 9.9 N 33 46 18 25 1011.7 1011.7 0.0
01/01:00pm 25.9 18.1 6.5 29 10.1 NNW 37 52 20 28 1012.0 1012.0 0.0
01/12:30pm 26.8 17.9 5.1 25 11.1 N 41 54 22 29 1012.3 1012.3 0.0
01/12:00pm 26.8 17.9 5.1 25 11.1 N 41 56 22 30 1012.4 1012.4 0.0
01/11:30am 26.8 17.9 5.1 25 11.1 N 41 56 22 30 1012.7 1012.7 0.0
01/11:19am 26.8 17.8 4.6 24 11.2 N 41 59 22 32 1012.9 1012.9 0.0
01/11:00am 27.0 18.5 5.3 25 11.1 N 39 54 21 29 1013.0 1013.0 0.0
01/10:35am 26.4 18.2 4.8 25 11.0 N 37 57 20 31 1013.0 1013.0 0.0
01/10:30am 26.1 18.0 5.1 26 10.7 N 37 50 20 27 1013.1 1013.1 0.0
01/10:00am 24.4 17.0 5.2 29 9.7 N 33 46 18 25 1013.4 1013.4 0.0
01/09:30am 24.0 17.3 5.4 30 9.4 N 30 43 16 23 1013.8 1013.8 0.0
01/09:00am 22.8 16.1 5.7 33 8.6 N 30 39 16 21 1014.1 1014.1 0.0
01/08:30am 21.1 16.6 5.9 37 7.6 N 19 28 10 15 1014.2 1014.2 0.0
01/08:00am 20.4 16.0 6.4 40 7.0 N 19 24 10 13 1014.0 1014.0 0.0
01/07:30am 19.9 15.8 6.3 41 6.8 N 17 22 9 12 1014.3 1014.3 0.0
01/07:00am 20.1 15.6 6.1 40 7.0 N 19 26 10 14 1014.4 1014.4 0.0
01/06:30am 20.1 16.5 6.8 42 6.7 N 15 20 8 11 1014.4 1014.4 0.0
01/06:00am 19.3 16.3 7.7 47 5.9 N 13 17 7 9 1014.5 1014.5 0.0
01/05:30am 18.9 15.7 8.6 51 5.3 NNE 15 20 8 11 1014.6 1014.6 0.0
01/05:00am 16.7 15.0 9.9 64 3.6 NNE 9 11 5 6 1014.9 1014.9 0.0
01/04:30am 16.4 15.4 10.9 70 2.9 NNE 7 11 4 6 1015.2 1015.2 0.0
01/04:00am 16.0 14.4 11.4 74 2.5 NNE 11 15 6 8 1015.7 1015.7 0.0
01/03:30am 15.4 13.6 12.0 80 1.8 NE 13 20 7 11 1016.1 1016.1 0.0
01/03:00am 15.2 14.0 11.6 79 1.9 NE 9 11 5 6 1016.7 1016.7 0.0
01/02:30am 14.3 13.5 11.6 84 1.4 NE 7 9 4 5 1017.3 1017.3 0.0
01/02:00am 13.4 12.8 10.4 82 1.6 ENE 4 6 2 3 1017.8 1017.8 0.0
01/01:30am 13.8 12.6 10.4 80 1.8 ENE 7 9 4 5 1018.2 1018.2 0.0
01/01:00am 14.2 13.1 10.6 79 1.9 NE 7 11 4 6 1018.5 1018.5 0.0
01/12:30am 14.8 13.7 10.8 77 2.1 NE 7 11 4 6 1018.8 1018.8 0.0
01/12:00am 14.4 13.6 11.2 81 1.7 NE 6 6 3 3 1019.2 1019.2 0.0
 
Date/Time
CDT
Temp
°C
App
Temp
°C
Dew
Point
Rel
Hum
%
Delta-T
°C
Wind Press
QNH
hPa
Press
MSL
hPa
Rain
since 9 am
mm
Dir
 
Spd
km/h
Gust
km/h
Spd
kts
Gust
kts
31/11:30pm 14.5 14.2 11.5 82 1.6 ENE 4 7 2 4 1019.5 1019.5 0.0
31/11:00pm 13.8 13.0 11.1 84 1.4 ENE 6 7 3 4 1019.8 1019.8 0.0
31/10:30pm 13.2 12.7 10.9 86 1.2 E 4 6 2 3 1020.1 1020.1 0.0
31/10:00pm 13.6 13.9 10.8 83 1.5 CALM 0 0 0 0 1020.2 1020.2 0.0
31/09:30pm 14.1 14.4 10.9 81 1.7 CALM 0 0 0 0 1020.2 1020.2 0.0
31/09:00pm 14.7 14.4 11.5 81 1.7 ESE 4 6 2 3 1020.1 1020.1 0.0
31/08:30pm 15.2 14.8 11.2 77 2.1 SSE 4 7 2 4 1020.3 1020.3 0.0
31/08:00pm 16.3 16.5 11.7 74 2.5 SSW 2 2 1 1 1020.2 1020.2 0.0
31/07:30pm 17.9 17.8 12.1 69 3.2 SSW 4 6 2 3 1020.4 1020.4 0.0
31/07:00pm 20.1 20.3 11.8 59 4.6 WNW 2 4 1 2 1020.2 1020.2 0.0
31/06:30pm 22.3 21.4 10.8 48 6.3 WNW 6 7 3 4 1020.3 1020.3 0.0
31/06:00pm 23.4 22.3 10.8 45 7.0 WNW 7 11 4 6 1020.2 1020.2 0.0
31/05:30pm 23.4 22.1 11.1 46 6.8 WNW 9 13 5 7 1020.2 1020.2 0.0
31/05:00pm 23.9 21.3 9.5 40 7.8 NW 13 17 7 9 1020.3 1020.3 0.0
31/04:30pm 24.3 22.0 10.6 42 7.6 NW 13 19 7 10 1020.4 1020.4 0.0
31/04:00pm 24.3 22.0 11.6 45 7.2 NW 15 19 8 10 1020.7 1020.7 0.0
31/03:30pm 24.2 21.4 11.2 44 7.3 NW 17 20 9 11 1021.1 1021.1 0.0
31/03:00pm 24.9 21.6 11.5 43 7.6 WNW 20 26 11 14 1021.7 1021.7 0.0
31/02:30pm 23.8 20.2 11.8 47 6.8 WNW 22 28 12 15 1022.2 1022.2 0.0
31/02:00pm 23.5 20.0 12.2 49 6.4 NW 22 28 12 15 1022.3 1022.3 0.0
31/01:30pm 23.8 20.6 11.8 47 6.8 NW 20 26 11 14 1022.8 1022.8 0.0
31/01:00pm 23.7 20.8 12.4 49 6.5 NW 19 22 10 12 1023.2 1023.2 0.0
31/12:30pm 24.3 22.0 11.9 45 7.0 WNW 15 20 8 11 1023.5 1023.5 0.0
31/12:00pm 23.4 21.1 11.8 48 6.5 N 15 20 8 11 1023.9 1023.9 0.0
31/11:30am 22.6 20.6 12.8 54 5.6 N 15 22 8 12 1024.4 1024.4 0.0
31/11:00am 20.6 18.2 12.8 61 4.4 N 17 20 9 11 1024.8 1024.8 0.0
31/10:30am 19.0 17.5 13.2 69 3.3 NNE 13 19 7 10 1025.1 1025.1 0.0
31/10:00am 16.1 15.6 15.0 93 0.6 NE 11 15 6 8 1025.3 1025.3 0.0
31/09:30am 14.1 13.2 13.8 98 0.2 ENE 11 17 6 9 1025.5 1025.5 0.0
31/09:00am 12.8 12.3 12.5 98 0.2 ENE 7 13 4 7 1025.4 1025.4 0.2
31/08:30am 11.9 11.7 11.7 99 0.1 ENE 4 6 2 3 1025.3 1025.3 0.2
31/08:00am 10.9 10.0 10.7 99 0.1 ESE 6 9 3 5 1025.0 1025.0 0.2
31/07:30am 10.2 9.5 9.9 98 0.2 SSE 4 6 2 3 1024.9 1024.9 0.2
31/07:00am 9.8 9.0 9.5 98 0.1 SSW 4 6 2 3 1025.3 1025.3 0.0
31/06:30am 9.4 8.5 9.1 98 0.1 SSW 4 4 2 2 1025.1 1025.1 0.0
31/06:00am 9.4 8.8 9.1 98 0.1 SSW 2 2 1 1 1024.9 1024.9 0.0
31/05:30am 9.4 8.5 9.1 98 0.1 SSW 4 4 2 2 1024.8 1024.8 0.0
31/05:00am 8.4 7.9 8.0 97 0.2 CALM 0 0 0 0 1024.9 1024.9 0.0
31/04:30am 9.2 8.6 8.9 98 0.1 SSW 2 2 1 1 1024.8 1024.8 0.0
31/04:00am 8.7 7.6 8.3 97 0.2 SSW 4 4 2 2 1024.9 1024.9 0.0
31/03:30am 9.0 7.9 8.6 97 0.2 SSW 4 6 2 3 1025.2 1025.2 0.0
31/03:00am 9.6 9.4 9.1 97 0.2 CALM 0 0 0 0 1025.3 1025.3 0.0
31/02:30am 9.5 9.3 9.0 97 0.2 CALM 0 2 0 1 1025.1 1025.1 0.0
31/02:00am 9.4 8.8 8.9 97 0.2 NE 2 4 1 2 1025.4 1025.4 0.0
31/01:30am 9.3 9.0 8.8 97 0.2 CALM 0 0 0 0 1025.7 1025.7 0.0
31/01:00am 9.4 9.1 8.8 96 0.3 CALM 0 0 0 0 1025.7 1025.7 0.0
31/12:30am 9.5 9.3 8.9 96 0.3 CALM 0 0 0 0 1025.6 1025.6 0.0
31/12:00am 10.7 10.8 10.1 96 0.3 CALM 0 0 0 0 1025.7 1025.7 0.0
 
Date/Time
CDT
Temp
°C
App
Temp
°C
Dew
Point
Rel
Hum
%
Delta-T
°C
Wind Press
QNH
hPa
Press
MSL
hPa
Rain
since 9 am
mm
Dir
 
Spd
km/h
Gust
km/h
Spd
kts
Gust
kts
30/11:30pm 10.2 10.1 9.6 96 0.3 CALM 0 0 0 0 1026.0 1026.0 0.0
30/11:00pm 10.8 10.9 10.2 96 0.3 CALM 0 0 0 0 1026.1 1026.1 0.0
30/10:30pm 10.4 10.3 9.5 94 0.4 CALM 0 0 0 0 1026.2 1026.2 0.0
30/10:00pm 11.5 11.7 10.6 94 0.5 CALM 0 0 0 0 1026.2 1026.2 0.0
30/09:30pm 12.6 13.1 11.7 94 0.5 CALM 0 0 0 0 1026.2 1026.2 0.0
30/09:00pm 12.4 12.8 11.1 92 0.7 CALM 0 0 0 0 1026.2 1026.2 0.0
30/08:30pm 13.9 14.6 12.3 90 0.9 CALM 0 0 0 0 1025.9 1025.9 0.0
30/08:00pm 15.1 16.1 13.3 89 1.0 CALM 0 0 0 0 1025.7 1025.7 0.0
30/07:30pm 16.6 17.7 14.6 88 1.1 SE 2 4 1 2 1025.4 1025.4 0.0
30/07:00pm 17.5 17.9 14.8 84 1.6 WNW 6 9 3 5 1025.3 1025.3 0.0
30/06:30pm 18.8 19.3 14.9 78 2.3 W 6 11 3 6 1025.1 1025.1 0.0
30/06:00pm 19.4 18.9 14.9 75 2.6 W 11 17 6 9 1024.9 1024.9 0.0
30/05:30pm 19.4 18.9 14.9 75 2.6 W 11 17 6 9 1024.8 1024.8 0.0
30/05:00pm 20.4 19.6 15.2 72 3.1 W 13 17 7 9 1024.7 1024.7 0.0
30/04:30pm 19.8 18.3 15.2 75 2.7 NW 17 20 9 11 1024.7 1024.7 0.0
30/04:00pm 20.5 18.7 15.5 73 3.0 NW 19 22 10 12 1024.7 1024.7 0.0
30/03:30pm 21.4 20.2 15.0 67 3.8 NW 15 22 8 12 1024.8 1024.8 0.0
30/03:00pm 21.1 19.3 15.4 70 3.4 NW 19 24 10 13 1024.9 1024.9 0.0
30/02:30pm 21.1 19.3 15.4 70 3.4 NW 19 24 10 13 1025.0 1025.0 0.0
30/02:00pm 20.6 18.9 14.7 69 3.5 NW 17 22 9 12 1025.1 1025.1 0.0
30/01:30pm 20.2 18.0 14.8 71 3.1 NW 20 24 11 13 1025.3 1025.3 0.0
30/01:00pm 20.7 19.1 15.0 70 3.4 NW 17 22 9 12 1025.5 1025.5 0.0
30/12:30pm 20.9 19.8 15.2 70 3.4 NW 15 22 8 12 1025.7 1025.7 0.0
30/12:00pm 20.0 18.3 14.6 71 3.1 NW 17 20 9 11 1025.8 1025.8 0.0
30/11:30am 19.3 18.0 14.8 75 2.6 NNW 15 19 8 10 1025.8 1025.8 0.0
30/11:00am 19.5 19.0 15.0 75 2.6 NW 11 17 6 9 1025.9 1025.9 0.0
30/10:30am 18.1 18.5 15.4 84 1.6 NW 7 15 4 8 1026.0 1026.0 0.0
30/10:00am 17.3 18.4 16.7 96 0.4 NE 6 11 3 6 1025.8 1025.8 0.0
30/09:30am 15.4 15.9 15.1 98 0.2 NNE 6 7 3 4 1025.5 1025.5 0.0
30/09:00am 14.4 15.0 14.2 99 0.1 W 4 6 2 3 1025.3 1025.3 0.0
30/08:30am 12.5 12.5 12.3 99 0.1 W 4 6 2 3 1024.9 1024.9 0.0
30/08:00am 10.6 10.8 10.4 99 0.1 CALM 0 0 0 0 1024.6 1024.6 0.0
30/07:30am 9.2 9.0 9.1 99 0.0 CALM 0 0 0 0 1024.2 1024.2 0.0
30/07:00am 8.3 7.8 8.0 98 0.1 CALM 0 0 0 0 1024.0 1024.0 0.0
30/06:30am 7.5 6.9 7.2 98 0.1 CALM 0 0 0 0 1023.6 1023.6 0.0
30/06:00am 7.8 7.2 7.5 98 0.1 CALM 0 0 0 0 1023.4 1023.4 0.0
30/05:30am 6.8 6.0 6.4 97 0.2 CALM 0 0 0 0 1023.2 1023.2 0.0
30/05:00am 7.8 7.2 7.5 98 0.1 CALM 0 0 0 0 1023.0 1023.0 0.0
30/04:30am 7.4 6.7 7.1 98 0.1 CALM 0 0 0 0 1022.9 1022.9 0.0
30/04:00am 8.0 7.5 7.7 98 0.1 CALM 0 0 0 0 1023.1 1023.1 0.0
30/03:30am 7.2 6.5 6.8 97 0.2 CALM 0 0 0 0 1023.2 1023.2 0.0
30/03:00am 7.8 7.2 7.4 97 0.2 CALM 0 0 0 0 1023.2 1023.2 0.0
30/02:30am 8.1 7.6 7.7 97 0.2 CALM 0 0 0 0 1023.3 1023.3 0.0
30/02:00am 8.1 7.5 7.5 96 0.3 CALM 0 0 0 0 1023.4 1023.4 0.0
30/01:30am 9.2 8.9 8.7 97 0.2 CALM 0 0 0 0 1023.4 1023.4 0.0
30/01:00am 8.4 7.9 7.8 96 0.3 CALM 0 0 0 0 1023.5 1023.5 0.0
30/12:30am 8.8 8.4 8.2 96 0.3 CALM 0 0 0 0 1023.5 1023.5 0.0
30/12:00am 8.4 7.8 7.6 95 0.4 CALM 0 0 0 0 1023.5 1023.5 0.0
 
Date/Time
CDT
Temp
°C
App
Temp
°C
Dew
Point
Rel
Hum
%
Delta-T
°C
Wind Press
QNH
hPa
Press
MSL
hPa
Rain
since 9 am
mm
Dir
 
Spd
km/h
Gust
km/h
Spd
kts
Gust
kts
29/11:30pm 8.9 8.5 8.1 95 0.4 CALM 0 0 0 0 1023.6 1023.6 0.0
29/11:00pm 10.4 10.3 9.6 95 0.4 CALM 0 0 0 0 1023.7 1023.7 0.0
29/10:30pm 10.1 9.9 9.2 94 0.4 CALM 0 0 0 0 1023.6 1023.6 0.0
29/10:00pm 11.2 11.3 10.1 93 0.6 CALM 0 0 0 0 1023.6 1023.6 0.0
29/09:30pm 12.2 12.6 11.1 93 0.6 CALM 0 0 0 0 1023.5 1023.5 0.0
29/09:00pm 12.5 12.5 11.1 91 0.7 W 2 2 1 1 1023.4 1023.4 0.0
29/08:30pm 13.9 14.3 12.5 91 0.8 W 2 2 1 1 1023.2 1023.2 0.0
29/08:00pm 14.9 15.4 12.9 88 1.1 W 2 2 1 1 1023.0 1023.0 0.0
29/07:30pm 16.2 16.7 14.0 87 1.2 W 4 6 2 3 1022.8 1022.8 0.0
29/07:00pm 17.1 17.3 14.2 83 1.7 W 6 9 3 5 1022.7 1022.7 0.0

Other Formats:

Comma delimited format used in spreadsheet applications
http://www.bom.gov.au/fwo/IDS60801/IDS60801.95816.axf

JavaScript Object Notation format (JSON) in row-major order
http://www.bom.gov.au/fwo/IDS60801/IDS60801.95816.json